createdAt,value
2018-11-26T00:03:04.845Z,95926.48
2018-11-26T00:05:32.037Z,95909.44
2018-11-26T00:07:59.192Z,95908.56
2018-11-26T00:10:37.737Z,95903.82
2018-11-26T00:13:05.209Z,95897.83
2018-11-26T00:15:32.535Z,95896.69
2018-11-26T00:17:59.729Z,95894.39
2018-11-26T00:20:26.927Z,95893.83
2018-11-26T00:22:54.133Z,95888.98
2018-11-26T00:25:21.369Z,95885.17
2018-11-26T00:27:48.596Z,95889.22
2018-11-26T00:30:15.845Z,95885.55
2018-11-26T00:32:43.067Z,95878.23
2018-11-26T00:35:10.275Z,95876.16
2018-11-26T00:37:37.418Z,95870.64
2018-11-26T00:40:06.642Z,95872.53
2018-11-26T00:42:33.829Z,95875.73
2018-11-26T00:45:00.994Z,95880.53
2018-11-26T00:47:28.174Z,95877.47
2018-11-26T00:49:55.328Z,95877.65
2018-11-26T00:52:22.546Z,95872.48
2018-11-26T00:54:49.689Z,95878.48
2018-11-26T00:57:16.893Z,95867.73
2018-11-26T00:59:44.105Z,95869.50
2018-11-26T01:02:13.933Z,95866.53
2018-11-26T01:04:41.172Z,95870.03
2018-11-26T01:07:08.441Z,95875.58
2018-11-26T01:09:35.739Z,95873.12
2018-11-26T01:12:02.946Z,95871.47
2018-11-26T01:14:30.155Z,95879.46
2018-11-26T01:16:57.383Z,95881.14
2018-11-26T01:19:24.552Z,95877.33
2018-11-26T01:21:51.725Z,95874.08
2018-11-26T01:24:18.897Z,95871.94
2018-11-26T01:26:46.065Z,95868.38
2018-11-26T01:29:13.265Z,95874.08
2018-11-26T01:31:40.464Z,95870.40
2018-11-26T01:34:07.634Z,95865.70
2018-11-26T01:36:34.808Z,95857.81
2018-11-26T01:39:02.008Z,95857.73
2018-11-26T01:41:29.166Z,95860.77
2018-11-26T01:43:56.364Z,95860.28
2018-11-26T01:46:23.581Z,95863.37
2018-11-26T01:48:51.194Z,95856.48
2018-11-26T01:51:18.368Z,95849.95
2018-11-26T01:53:45.542Z,95846.54
2018-11-26T01:56:12.882Z,95839.00
2018-11-26T01:58:40.031Z,95834.33
2018-11-26T02:01:07.253Z,95830.35
2018-11-26T02:03:34.472Z,95828.03
2018-11-26T02:06:01.740Z,95830.11
2018-11-26T02:08:28.932Z,95828.57
2018-11-26T02:10:56.079Z,95837.48
2018-11-26T02:13:23.243Z,95830.80
2018-11-26T02:15:50.510Z,95837.09
2018-11-26T02:18:17.701Z,95835.91
2018-11-26T02:20:44.848Z,95832.28
2018-11-26T02:23:11.993Z,95838.16
2018-11-26T02:25:39.215Z,95836.14
2018-11-26T02:28:06.493Z,95837.03
2018-11-26T02:30:33.708Z,95841.97
2018-11-26T02:33:00.885Z,95837.27
2018-11-26T02:35:28.084Z,95843.33
2018-11-26T02:37:55.293Z,95839.36
2018-11-26T02:40:26.656Z,95839.30
2018-11-26T02:42:53.891Z,95829.46
2018-11-26T02:45:21.145Z,95828.09
2018-11-26T02:47:48.271Z,95823.09
2018-11-26T02:50:15.464Z,95816.92
2018-11-26T02:52:42.643Z,95809.61
2018-11-26T02:55:09.877Z,95807.53
2018-11-26T02:57:37.074Z,95810.39
2018-11-26T03:00:08.288Z,95810.50
2018-11-26T03:02:35.432Z,95815.20
2018-11-26T03:05:03.357Z,95816.27
2018-11-26T03:07:30.593Z,95822.70
2018-11-26T03:09:57.741Z,95823.24
2018-11-26T03:12:24.943Z,95813.55
2018-11-26T03:14:52.093Z,95813.55
2018-11-26T03:17:19.257Z,95820.09
2018-11-26T03:19:46.473Z,95822.41
2018-11-26T03:22:13.705Z,95830.55
2018-11-26T03:24:40.929Z,95826.20
2018-11-26T03:27:08.069Z,95825.08
2018-11-26T03:29:35.261Z,95832.15
2018-11-26T03:32:02.451Z,95828.70
2018-11-26T03:34:29.657Z,95831.22
2018-11-26T03:36:56.872Z,95833.42
2018-11-26T03:39:24.080Z,95831.05
2018-11-26T03:41:51.332Z,95826.08
2018-11-26T03:44:18.533Z,95835.23
2018-11-26T03:46:45.733Z,95832.89
2018-11-26T03:49:12.909Z,95832.29
2018-11-26T03:51:40.097Z,95839.23
2018-11-26T03:54:07.245Z,95844.70
2018-11-26T03:56:34.426Z,95845.48
2018-11-26T03:59:01.686Z,95841.22
2018-11-26T04:01:28.879Z,95835.98
2018-11-26T04:03:56.084Z,95839.37
2018-11-26T04:06:23.426Z,95833.64
2018-11-26T04:08:50.666Z,95834.08
2018-11-26T04:11:17.814Z,95833.25
2018-11-26T04:13:45.056Z,95834.79
2018-11-26T04:16:12.278Z,95835.56
2018-11-26T04:18:39.409Z,95822.24
2018-11-26T04:21:06.593Z,95822.18
2018-11-26T04:23:33.772Z,95822.34
2018-11-26T04:26:01.006Z,95826.00
2018-11-26T04:28:28.190Z,95823.86
2018-11-26T04:30:55.378Z,95821.88
2018-11-26T04:33:22.550Z,95821.23
2018-11-26T04:35:49.690Z,95812.31
2018-11-26T04:38:16.818Z,95818.32
2018-11-26T04:40:44.005Z,95815.03
2018-11-26T04:43:11.142Z,95813.56
2018-11-26T04:45:38.261Z,95811.72
2018-11-26T04:48:05.537Z,95807.55
2018-11-26T04:50:32.760Z,95810.17
2018-11-26T04:52:59.938Z,95812.48
2018-11-26T04:55:27.146Z,95810.23
2018-11-26T04:57:54.307Z,95810.11
2018-11-26T05:00:21.491Z,95809.23
2018-11-26T05:02:48.681Z,95804.10
2018-11-26T05:05:15.834Z,95799.47
2018-11-26T05:07:43.047Z,95799.23
2018-11-26T05:10:11.438Z,95806.11
2018-11-26T05:12:38.666Z,95808.56
2018-11-26T05:15:07.614Z,95812.19
2018-11-26T05:17:34.805Z,95813.19
2018-11-26T05:20:02.144Z,95813.09
2018-11-26T05:22:29.337Z,95823.09
2018-11-26T05:24:56.457Z,95820.23
2018-11-26T05:27:23.708Z,95823.42
2018-11-26T05:29:50.906Z,95815.77
2018-11-26T05:32:18.090Z,95815.53
2018-11-26T05:34:45.915Z,95818.25
2018-11-26T05:37:13.133Z,95817.89
2018-11-26T05:39:40.356Z,95818.80
2018-11-26T05:42:07.486Z,95825.09
2018-11-26T05:44:34.677Z,95827.77
2018-11-26T05:47:01.868Z,95831.64
2018-11-26T05:49:29.132Z,95832.64
2018-11-26T05:51:56.277Z,95836.50
2018-11-26T05:54:23.545Z,95831.58
2018-11-26T05:56:50.664Z,95831.87
2018-11-26T05:59:17.892Z,95830.93
2018-11-26T06:01:45.108Z,95826.53
2018-11-26T06:04:12.300Z,95829.15
2018-11-26T06:06:39.551Z,95821.09
2018-11-26T06:09:09.005Z,95827.84
2018-11-26T06:11:37.078Z,95815.83
2018-11-26T06:14:04.345Z,95819.32
2018-11-26T06:16:31.573Z,95816.00
2018-11-26T06:18:58.721Z,95820.98
2018-11-26T06:21:25.852Z,95828.14
2018-11-26T06:23:53.072Z,95836.32
2018-11-26T06:26:20.267Z,95835.02
2018-11-26T06:28:47.473Z,95840.31
2018-11-26T06:31:14.684Z,95837.33
2018-11-26T06:33:41.808Z,95837.52
2018-11-26T06:36:09.032Z,95839.23
2018-11-26T06:38:36.214Z,95848.28
2018-11-26T06:41:03.488Z,95844.30
2018-11-26T06:43:30.689Z,95848.63
2018-11-26T06:45:57.867Z,95854.39
2018-11-26T06:48:25.025Z,95853.33
2018-11-26T06:50:52.206Z,95850.00
2018-11-26T06:53:19.464Z,95853.15
2018-11-26T06:55:46.641Z,95860.34
2018-11-26T06:58:13.785Z,95855.92
2018-11-26T07:00:41.133Z,95855.66
2018-11-26T07:03:08.237Z,95854.22
2018-11-26T07:05:35.367Z,95859.22
2018-11-26T07:08:02.540Z,95863.97
2018-11-26T07:10:29.709Z,95862.15
2018-11-26T07:12:56.861Z,95855.53
2018-11-26T07:15:24.025Z,95861.77
2018-11-26T07:17:51.164Z,95868.39
2018-11-26T07:20:20.126Z,95863.48
2018-11-26T07:22:47.292Z,95867.17
2018-11-26T07:25:15.703Z,95869.73
2018-11-26T07:27:43.913Z,95864.32
2018-11-26T07:30:13.357Z,95868.61
2018-11-26T07:32:40.966Z,95873.54
2018-11-26T07:35:08.357Z,95870.16
2018-11-26T07:37:35.527Z,95869.61
2018-11-26T07:40:03.158Z,95868.31
2018-11-26T07:42:30.266Z,95872.08
2018-11-26T07:44:57.441Z,95870.33
2018-11-26T07:47:24.574Z,95875.32
2018-11-26T07:49:51.706Z,95880.70
2018-11-26T07:52:18.878Z,95878.02
2018-11-26T07:54:46.063Z,95883.78
2018-11-26T07:57:13.220Z,95881.47
2018-11-26T07:59:40.399Z,95890.33
2018-11-26T08:02:07.642Z,95891.88
2018-11-26T08:04:34.823Z,95895.91
2018-11-26T08:07:01.994Z,95896.65
2018-11-26T08:09:29.169Z,95901.88
2018-11-26T08:11:56.263Z,95897.45
2018-11-26T08:14:23.421Z,95905.54
2018-11-26T08:16:50.601Z,95902.36
2018-11-26T08:19:17.778Z,95902.89
2018-11-26T08:21:45.238Z,95906.63
2018-11-26T08:24:12.153Z,95911.15
2018-11-26T08:26:39.328Z,95911.56
2018-11-26T08:29:06.511Z,95918.31
2018-11-26T08:31:33.674Z,95914.95
2018-11-26T08:34:00.844Z,95910.48
2018-11-26T08:36:38.512Z,95915.16
2018-11-26T08:39:11.138Z,95912.03
2018-11-26T08:41:42.869Z,95911.94
2018-11-26T08:44:17.350Z,95914.62
2018-11-26T08:46:46.305Z,95920.09
2018-11-26T08:49:17.280Z,95915.86
2018-11-26T08:51:44.446Z,95922.94
2018-11-26T08:54:11.661Z,95922.94
2018-11-26T08:56:38.821Z,95923.48
2018-11-26T08:59:06.182Z,95923.58
2018-11-26T09:01:39.093Z,95926.57
2018-11-26T09:05:09.251Z,95929.72
2018-11-26T09:07:36.450Z,95940.55
2018-11-26T09:10:05.711Z,95942.64
2018-11-26T09:12:32.926Z,95930.02
2018-11-26T09:15:00.159Z,95938.42
2018-11-26T09:17:28.037Z,95940.30
2018-11-26T09:19:55.201Z,95949.43
2018-11-26T09:22:22.404Z,95947.70
2018-11-26T09:24:49.509Z,95945.98
2018-11-26T09:27:16.677Z,95949.37
2018-11-26T09:29:43.929Z,95943.30
2018-11-26T09:32:11.110Z,95943.83
2018-11-26T09:34:38.825Z,95954.77
2018-11-26T09:37:06.058Z,95954.77
2018-11-26T09:39:33.209Z,95949.17
2018-11-26T09:42:00.310Z,95948.77
2018-11-26T09:44:27.402Z,95950.38
2018-11-26T09:46:54.604Z,95948.30
2018-11-26T09:49:21.794Z,95944.84
2018-11-26T09:51:49.055Z,95948.17
2018-11-26T09:54:16.250Z,95936.92
2018-11-26T09:56:43.385Z,95942.70
2018-11-26T09:59:11.501Z,95932.16
2018-11-26T10:01:39.544Z,95937.36
2018-11-26T10:04:07.508Z,95936.82
2018-11-26T10:06:35.607Z,95939.98
2018-11-26T10:09:03.574Z,95935.52
2018-11-26T10:11:33.148Z,95933.94
2018-11-26T10:14:00.633Z,95939.91
2018-11-26T10:16:28.641Z,95936.16
2018-11-26T10:18:56.241Z,95936.16
2018-11-26T10:21:24.394Z,95935.86
2018-11-26T10:23:52.604Z,95941.23
2018-11-26T10:26:20.469Z,95933.41
2018-11-26T10:28:47.872Z,95933.61
2018-11-26T10:31:15.708Z,95932.53
2018-11-26T10:33:43.083Z,95936.16
2018-11-26T10:36:11.706Z,95930.85
2018-11-26T10:38:38.893Z,95931.33
2018-11-26T10:41:06.595Z,95930.25
2018-11-26T10:43:33.821Z,95931.99
2018-11-26T10:46:01.007Z,95927.39
2018-11-26T10:48:28.443Z,95932.86
2018-11-26T10:50:55.653Z,95928.94
2018-11-26T10:53:22.842Z,95926.01
2018-11-26T10:55:52.682Z,95932.25
2018-11-26T10:58:20.509Z,95928.80
2018-11-26T11:00:53.437Z,95925.55
2018-11-26T11:03:21.297Z,95931.25
2018-11-26T11:05:48.665Z,95935.65
2018-11-26T11:08:15.829Z,95926.31
2018-11-26T11:10:45.056Z,95935.84
2018-11-26T11:13:12.281Z,95928.02
2018-11-26T11:15:40.232Z,95928.80
2018-11-26T11:18:08.080Z,95931.19
2018-11-26T11:20:36.899Z,95926.71
2018-11-26T11:23:04.441Z,95924.16
2018-11-26T11:25:31.667Z,95925.94
2018-11-26T11:27:58.883Z,95918.58
2018-11-26T11:30:28.177Z,95918.58
2018-11-26T11:32:55.871Z,95917.78
2018-11-26T11:35:23.355Z,95907.02
2018-11-26T11:37:51.734Z,95906.79
2018-11-26T11:40:26.150Z,95903.80
2018-11-26T11:42:54.137Z,95910.20
2018-11-26T11:45:23.198Z,95906.81
2018-11-26T11:47:52.329Z,95908.34
2018-11-26T11:50:21.281Z,95906.79
2018-11-26T11:52:48.821Z,95909.69
2018-11-26T11:55:17.142Z,95906.83
2018-11-26T11:57:44.351Z,95910.83
2018-11-26T12:00:14.875Z,95905.66
2018-11-26T12:02:42.434Z,95903.27
2018-11-26T12:05:11.105Z,95907.20
2018-11-26T12:07:38.313Z,95906.66
2018-11-26T12:10:07.573Z,95910.05
2018-11-26T12:12:35.895Z,95915.30
2018-11-26T12:15:10.731Z,95918.08
2018-11-26T12:17:37.931Z,95914.42
2018-11-26T12:20:07.647Z,95914.84
2018-11-26T12:22:34.786Z,95919.06
2018-11-26T12:25:02.664Z,95921.75
2018-11-26T12:27:29.890Z,95864.05
2018-11-26T12:29:57.075Z,95916.92
2018-11-26T12:32:24.255Z,95921.85
2018-11-26T12:34:51.366Z,95905.27
2018-11-26T12:37:18.597Z,95918.66
2018-11-26T12:39:45.746Z,95926.16
2018-11-26T12:42:12.953Z,95924.84
2018-11-26T12:44:50.359Z,95930.45
2018-11-26T12:47:17.544Z,95926.52
2018-11-26T12:49:44.711Z,95927.83
2018-11-26T12:52:11.859Z,95928.67
2018-11-26T12:54:39.001Z,95928.06
2018-11-26T12:57:06.335Z,95928.06
2018-11-26T12:59:35.264Z,95929.00
2018-11-26T13:02:02.435Z,95927.94
2018-11-26T13:04:29.664Z,95926.69
2018-11-26T13:06:57.188Z,95934.14
2018-11-26T13:09:24.408Z,95933.94
2018-11-26T13:11:51.624Z,95934.31
2018-11-26T13:14:18.810Z,95935.45
2018-11-26T13:16:47.383Z,95932.89
2018-11-26T13:19:15.814Z,95933.47
2018-11-26T13:21:42.935Z,95939.61
2018-11-26T13:24:10.090Z,95942.53
2018-11-26T13:26:37.761Z,95941.29
2018-11-26T13:29:09.153Z,95940.25
2018-11-26T13:31:37.429Z,95935.55
2018-11-26T13:34:06.338Z,95941.62
2018-11-26T13:36:33.598Z,95938.23
2018-11-26T13:39:00.987Z,95938.23
2018-11-26T13:41:29.016Z,95937.82
2018-11-26T13:43:57.412Z,95946.63
2018-11-26T13:46:24.579Z,95942.52
2018-11-26T13:48:51.779Z,95947.62
2018-11-26T13:51:20.151Z,95944.20
2018-11-26T13:53:48.307Z,95947.52
2018-11-26T13:56:15.463Z,95954.84
2018-11-26T13:58:42.646Z,95957.22
2018-11-26T14:01:13.838Z,95765.49
2018-11-26T14:03:41.007Z,95961.15
2018-11-26T14:06:10.134Z,95962.08
2018-11-26T14:08:40.219Z,95962.67
2018-11-26T14:11:07.510Z,95974.63
2018-11-26T14:13:34.718Z,95972.84
2018-11-26T14:16:01.928Z,95977.91
2018-11-26T14:18:30.387Z,95977.67
2018-11-26T14:20:58.755Z,95974.07
2018-11-26T14:23:25.965Z,95974.28
2018-11-26T14:25:53.147Z,95977.07
2018-11-26T14:28:21.098Z,95941.34
2018-11-26T14:30:49.139Z,95978.00
2018-11-26T14:33:16.323Z,95986.83
2018-11-26T14:35:43.598Z,95987.42
2018-11-26T14:38:10.859Z,95979.81
2018-11-26T14:40:40.857Z,95979.75
2018-11-26T14:43:08.020Z,95986.83
2018-11-26T14:45:35.214Z,95987.24
2018-11-26T14:48:02.394Z,95987.90
2018-11-26T14:50:29.641Z,95993.14
2018-11-26T14:52:56.850Z,95990.13
2018-11-26T14:55:30.049Z,95991.73
2018-11-26T14:57:57.320Z,95999.20
2018-11-26T15:00:24.492Z,95998.58
2018-11-26T15:02:51.726Z,95992.56
2018-11-26T15:05:18.921Z,96000.03
2018-11-26T15:07:46.153Z,96002.62
2018-11-26T15:10:17.416Z,95999.02
2018-11-26T15:12:44.969Z,96001.09
2018-11-26T15:15:13.670Z,96008.41
2018-11-26T15:17:41.597Z,96015.31
2018-11-26T15:20:11.415Z,96008.47
2018-11-26T15:22:38.627Z,96014.18
2018-11-26T15:25:07.952Z,96013.52
2018-11-26T15:27:35.153Z,96013.58
2018-11-26T15:30:06.326Z,96019.41
2018-11-26T15:32:33.618Z,96021.61
2018-11-26T15:35:00.873Z,96020.89
2018-11-26T15:37:28.080Z,96015.42
2018-11-26T15:39:55.730Z,96015.95
2018-11-26T15:42:22.938Z,96020.68
2018-11-26T15:44:50.199Z,96019.42
2018-11-26T15:47:17.441Z,96018.36
2018-11-26T15:49:44.751Z,96015.50
2018-11-26T15:52:11.946Z,96010.33
2018-11-26T15:54:39.184Z,96012.27
2018-11-26T15:57:06.463Z,96012.41
2018-11-26T15:59:33.635Z,96013.23
2018-11-26T16:02:00.852Z,96009.44
2018-11-26T16:04:28.019Z,96010.92
2018-11-26T16:06:55.773Z,96015.14
2018-11-26T16:09:22.945Z,96013.73
2018-11-26T16:11:50.204Z,96018.77
2018-11-26T16:14:17.431Z,96023.28
2018-11-26T16:16:44.611Z,96018.77
2018-11-26T16:19:11.799Z,96019.14
2018-11-26T16:21:39.029Z,96024.83
2018-11-26T16:24:06.351Z,96027.28
2018-11-26T16:26:33.539Z,96029.36
2018-11-26T16:29:00.728Z,96035.66
2018-11-26T16:31:27.969Z,96034.70
2018-11-26T16:33:55.488Z,96040.22
2018-11-26T16:36:22.686Z,96043.14
2018-11-26T16:38:52.709Z,96045.98
2018-11-26T16:41:20.291Z,96043.38
2018-11-26T16:43:48.345Z,96054.68
2018-11-26T16:46:15.925Z,96053.42
2018-11-26T16:48:43.604Z,96055.27
2018-11-26T16:51:11.143Z,96054.48
2018-11-26T16:53:38.837Z,96054.25
2018-11-26T16:56:06.543Z,96055.66
2018-11-26T16:58:34.212Z,96054.01
2018-11-26T17:01:02.561Z,96068.87
2018-11-26T17:03:33.039Z,96067.91
2018-11-26T17:06:01.605Z,96071.78
2018-11-26T17:08:29.976Z,96079.44
2018-11-26T17:10:58.656Z,96074.44
2018-11-26T17:13:29.739Z,96072.44
2018-11-26T17:15:58.541Z,96073.62
2018-11-26T17:18:26.104Z,96074.44
2018-11-26T17:20:56.304Z,96080.88
2018-11-26T17:23:23.747Z,96077.50
2018-11-26T17:25:51.576Z,96083.25
2018-11-26T17:28:19.421Z,96080.88
2018-11-26T17:30:48.059Z,96091.14
2018-11-26T17:33:15.387Z,96089.89
2018-11-26T17:35:42.970Z,96089.13
2018-11-26T17:38:10.173Z,96091.51
2018-11-26T17:40:41.806Z,96094.22
2018-11-26T17:43:11.773Z,96093.16
2018-11-26T17:45:39.744Z,96103.12
2018-11-26T17:48:07.597Z,96104.67
2018-11-26T17:50:37.739Z,96103.12
2018-11-26T17:53:10.380Z,96100.22
2018-11-26T17:58:30.379Z,96116.68
2018-11-26T18:01:00.532Z,96119.39
2018-11-26T18:03:28.226Z,96121.52
2018-11-26T18:05:56.040Z,96125.44
2018-11-26T18:08:24.177Z,96126.52
2018-11-26T18:10:52.032Z,96127.88
2018-11-26T18:13:19.507Z,96131.26
2018-11-26T18:15:47.031Z,96127.34
2018-11-26T18:18:17.424Z,96134.12
2018-11-26T18:20:45.965Z,96134.50
2018-11-26T18:23:13.409Z,96137.59
2018-11-26T18:25:42.013Z,96139.77
2018-11-26T18:28:12.043Z,96139.54
2018-11-26T18:30:41.769Z,96148.69
2018-11-26T18:33:09.231Z,96154.67
2018-11-26T18:35:37.085Z,96157.30
2018-11-26T18:38:05.085Z,96154.69
2018-11-26T18:40:32.383Z,96154.45
2018-11-26T18:42:59.688Z,96154.58
2018-11-26T18:45:27.090Z,96155.22
2018-11-26T18:47:54.463Z,96155.88
2018-11-26T18:50:22.174Z,96152.73
2018-11-26T18:52:50.095Z,96160.33
2018-11-26T18:55:17.573Z,96162.42
2018-11-26T18:57:45.185Z,96162.70
2018-11-26T19:00:31.055Z,96170.00
2018-11-26T19:02:58.653Z,96169.81
2018-11-26T19:05:25.961Z,96172.42
2018-11-26T19:07:53.209Z,96171.33
2018-11-26T19:10:24.149Z,96171.36
2018-11-26T19:12:56.933Z,96170.92
2018-11-26T19:15:30.682Z,96172.71
2018-11-26T19:18:02.290Z,96172.19
2018-11-26T19:20:29.587Z,96177.65
2018-11-26T19:22:56.860Z,96179.77
2018-11-26T19:25:24.534Z,96180.47
2018-11-26T19:27:51.827Z,96187.53
2018-11-26T19:30:23.086Z,96188.59
2018-11-26T19:32:46.425Z,96190.63
2018-11-26T19:35:14.649Z,96196.75
2018-11-26T19:37:41.932Z,96190.09
2018-11-26T19:40:10.686Z,96186.80
2018-11-26T19:42:38.154Z,96193.05
2018-11-26T19:45:11.510Z,96193.05
2018-11-26T19:47:41.379Z,96194.58
2018-11-26T19:50:11.836Z,96204.02
2018-11-26T19:52:39.289Z,96204.52
2018-11-26T19:55:10.152Z,96213.45
2018-11-26T19:57:37.508Z,96206.63
2018-11-26T20:00:10.064Z,96211.58
2018-11-26T20:02:37.276Z,96211.52
2018-11-26T20:05:08.669Z,96120.75
2018-11-26T20:07:35.894Z,96216.79
2018-11-26T20:10:03.259Z,96213.73
2018-11-26T20:12:30.524Z,96220.27
2018-11-26T20:14:57.729Z,96221.05
2018-11-26T20:17:26.302Z,96219.25
2018-11-26T20:19:53.594Z,96222.63
2018-11-26T20:22:20.789Z,96228.02
2018-11-26T20:24:48.248Z,96222.31
2018-11-26T20:27:15.448Z,96231.81
2018-11-26T20:29:42.802Z,96235.98
2018-11-26T20:32:10.018Z,96239.54
2018-11-26T20:34:37.247Z,96244.55
2018-11-26T20:37:05.179Z,96249.98
2018-11-26T20:39:32.439Z,96240.76
2018-11-26T20:41:59.630Z,96247.38
2018-11-26T20:44:26.817Z,96253.38
2018-11-26T20:46:54.107Z,96254.67
2018-11-26T20:49:21.362Z,96255.00
2018-11-26T20:51:48.811Z,96253.61
2018-11-26T20:54:16.030Z,96258.59
2018-11-26T20:56:43.287Z,96255.17
2018-11-26T20:59:10.534Z,96259.73
2018-11-26T21:01:37.793Z,96265.45
2018-11-26T21:04:05.696Z,96265.81
2018-11-26T21:06:32.927Z,96265.01
2018-11-26T21:09:00.134Z,96255.16
2018-11-26T21:11:27.399Z,96263.70
2018-11-26T21:13:54.671Z,96263.70
2018-11-26T21:16:21.982Z,96269.56
2018-11-26T21:18:49.166Z,96269.03
2018-11-26T21:21:16.377Z,96272.45
2018-11-26T21:23:43.707Z,96269.24
2018-11-26T21:26:10.882Z,96275.84
2018-11-26T21:28:38.112Z,96278.91
2018-11-26T21:44:05.007Z,96274.83
2018-11-26T21:46:32.200Z,96280.86
2018-11-26T21:49:00.294Z,96281.95
2018-11-26T21:51:27.487Z,96282.23
2018-11-26T21:53:54.745Z,96286.65
2018-11-26T21:56:22.064Z,96285.80
2018-11-26T21:58:49.249Z,96274.75
2018-11-26T22:01:16.499Z,96293.00
2018-11-26T22:03:43.738Z,96290.39
2018-11-26T22:06:10.998Z,96299.00
2018-11-26T22:08:38.238Z,96302.41
2018-11-26T22:11:05.572Z,96253.92
2018-11-26T22:13:32.958Z,96303.97
2018-11-26T22:16:00.244Z,96303.58
2018-11-26T22:18:27.452Z,96304.91
2018-11-26T22:20:54.663Z,96310.59
2018-11-26T22:23:21.942Z,96313.73
2018-11-26T22:25:49.221Z,96312.92
2018-11-26T22:28:16.422Z,96313.70
2018-11-26T22:30:43.643Z,96321.81
2018-11-26T22:33:10.860Z,96320.58
2018-11-26T22:35:38.109Z,96324.27
2018-11-26T22:38:05.635Z,96330.45
2018-11-26T22:40:32.821Z,96328.13
2018-11-26T22:43:00.052Z,96333.09
2018-11-26T22:45:29.975Z,96331.02
2018-11-26T22:48:02.286Z,96333.13
2018-11-26T22:50:29.526Z,96343.32
2018-11-26T22:52:56.663Z,96337.34
2018-11-26T22:55:23.863Z,96339.94
2018-11-26T22:57:51.050Z,96346.23
2018-11-26T23:00:30.259Z,96346.87
2018-11-26T23:02:58.484Z,96344.06
2018-11-26T23:05:25.794Z,96352.20
2018-11-26T23:07:53.013Z,96353.81
2018-11-26T23:10:20.238Z,96350.41
2018-11-26T23:12:47.476Z,96348.34
2018-11-26T23:15:15.304Z,96358.48
2018-11-26T23:17:43.308Z,96362.42
2018-11-26T23:20:14.410Z,96364.00
2018-11-26T23:22:41.551Z,96361.62
2018-11-26T23:25:16.455Z,96363.20
2018-11-26T23:27:43.627Z,96358.20
2018-11-26T23:30:17.903Z,96362.92
2018-11-26T23:32:46.095Z,96358.17
2018-11-26T23:35:13.289Z,96363.67
2018-11-26T23:37:40.537Z,96360.51
2018-11-26T23:40:09.919Z,96362.40
2018-11-26T23:42:37.109Z,96366.34
2018-11-26T23:45:07.311Z,96365.53
2018-11-26T23:47:34.511Z,96370.28
2018-11-26T23:50:01.686Z,96368.70
2018-11-26T23:52:28.830Z,96363.23
2018-11-26T23:54:56.045Z,96371.84
2018-11-26T23:57:23.223Z,96370.53
2018-11-26T23:59:50.405Z,96369.75
